createdAt,value
2022-10-17T00:00:47.807Z,21.07
2022-10-17T00:11:00.662Z,21.09
2022-10-17T00:21:02.051Z,21.11
2022-10-17T00:31:04.447Z,21.12
2022-10-17T00:41:06.119Z,21.13
2022-10-17T00:51:07.607Z,21.17
2022-10-17T01:01:09.044Z,21.16
2022-10-17T01:11:22.532Z,21.13
2022-10-17T01:21:47.411Z,21.09
2022-10-17T01:31:59.231Z,21.05
2022-10-17T01:42:20.752Z,21.03
2022-10-17T01:52:24.627Z,21.01
2022-10-17T02:02:26.083Z,20.99
2022-10-17T02:12:33.376Z,20.97
2022-10-17T02:22:47.722Z,20.91
2022-10-17T02:33:05.564Z,20.88
2022-10-17T02:43:07.124Z,20.85
2022-10-17T02:53:10.892Z,20.82
2022-10-17T03:03:23.275Z,20.80
2022-10-17T03:13:25.207Z,20.76
2022-10-17T03:23:26.587Z,20.74
2022-10-17T03:33:28.033Z,20.65
2022-10-17T03:43:29.748Z,20.66
2022-10-17T03:53:31.131Z,20.60
2022-10-17T04:03:32.628Z,20.57
2022-10-17T04:13:34.318Z,20.57
2022-10-17T04:23:35.701Z,20.52
2022-10-17T04:33:37.284Z,20.48
2022-10-17T04:43:38.741Z,20.45
2022-10-17T04:53:40.456Z,20.47
2022-10-17T05:03:42.371Z,20.49
2022-10-17T05:13:43.809Z,20.47
2022-10-17T05:23:45.843Z,20.43
2022-10-17T05:33:47.253Z,20.42
2022-10-17T05:43:50.096Z,20.39
2022-10-17T05:53:51.550Z,20.38
2022-10-17T06:03:53.028Z,20.36
2022-10-17T06:13:54.519Z,20.40
2022-10-17T06:23:56.016Z,20.44
2022-10-17T06:33:57.386Z,20.52
2022-10-17T06:43:58.790Z,20.61
2022-10-17T06:54:00.185Z,20.75
2022-10-17T07:04:01.689Z,20.95
2022-10-17T07:14:03.127Z,21.36
2022-10-17T07:24:05.724Z,21.41
2022-10-17T07:34:07.114Z,21.49
2022-10-17T07:44:08.563Z,21.72
2022-10-17T07:54:10.090Z,22.37
2022-10-17T08:04:11.605Z,22.92
2022-10-17T08:14:13.482Z,23.32
2022-10-17T08:24:14.851Z,23.66
2022-10-17T08:34:16.225Z,23.75
2022-10-17T08:44:25.250Z,24.04
2022-10-17T08:54:46.166Z,24.29
2022-10-17T09:05:04.638Z,24.21
2022-10-17T09:15:37.246Z,24.18
2022-10-17T09:25:46.504Z,24.48
2022-10-17T09:35:47.986Z,24.20
2022-10-17T09:46:04.500Z,24.12
2022-10-17T09:56:11.619Z,23.79
2022-10-17T10:06:19.489Z,23.50
2022-10-17T10:16:30.507Z,23.61
2022-10-17T10:26:43.451Z,23.65
2022-10-17T10:36:58.338Z,23.55
2022-10-17T10:47:27.184Z,23.55
2022-10-17T10:57:29.741Z,23.44
2022-10-17T11:07:33.263Z,23.35
2022-10-17T11:17:52.653Z,23.35
2022-10-17T11:27:54.140Z,23.40
2022-10-17T11:38:03.239Z,23.40
2022-10-17T11:48:31.041Z,23.42
2022-10-17T11:58:46.385Z,23.44
2022-10-17T12:09:10.669Z,23.50
2022-10-17T12:19:20.225Z,23.50
2022-10-17T12:29:27.382Z,23.63
2022-10-17T12:39:28.752Z,23.62
2022-10-17T12:49:36.265Z,23.55
2022-10-17T12:59:37.640Z,23.44
2022-10-17T13:09:39.246Z,23.49
2022-10-17T13:19:42.617Z,23.48
2022-10-17T13:29:44.504Z,23.45
2022-10-17T13:40:11.356Z,23.40
2022-10-17T13:50:26.450Z,23.37
2022-10-17T14:00:29.752Z,23.26
2022-10-17T14:10:30.970Z,23.19
2022-10-17T14:21:08.220Z,23.32
2022-10-17T14:30:57.729Z,23.37
2022-10-17T14:51:32.460Z,23.29
2022-10-17T15:01:41.725Z,23.16
2022-10-17T15:11:43.097Z,23.17
2022-10-17T15:21:47.233Z,23.12
2022-10-17T15:31:48.872Z,23.03
2022-10-17T15:41:50.341Z,22.95
2022-10-17T15:51:55.221Z,22.82
2022-10-17T16:01:56.848Z,22.71
2022-10-17T16:11:58.320Z,22.59
2022-10-17T16:22:04.326Z,22.61
2022-10-17T16:32:06.103Z,22.60
2022-10-17T16:42:07.512Z,22.58
2022-10-17T16:52:09.066Z,22.46
2022-10-17T17:02:10.744Z,22.24
2022-10-17T17:12:12.230Z,22.12
2022-10-17T17:22:13.632Z,22.09
2022-10-17T17:32:15.138Z,22.04
2022-10-17T17:42:16.643Z,21.94
2022-10-17T17:52:18.128Z,21.80
2022-10-17T18:02:19.647Z,21.85
2022-10-17T18:12:21.010Z,21.82
2022-10-17T18:22:23.051Z,21.76
2022-10-17T18:32:24.421Z,21.71
2022-10-17T18:42:25.839Z,21.65
2022-10-17T18:52:27.339Z,21.62
2022-10-17T19:02:28.785Z,21.56
2022-10-17T19:12:30.159Z,21.51
2022-10-17T19:22:33.019Z,21.47
2022-10-17T19:32:35.825Z,21.43
2022-10-17T19:42:37.233Z,21.38
2022-10-17T19:52:38.614Z,21.32
2022-10-17T20:02:40.099Z,21.27
2022-10-17T20:12:41.468Z,21.23
2022-10-17T20:22:42.833Z,21.16
2022-10-17T20:32:44.307Z,21.11
2022-10-17T20:42:45.799Z,21.06
2022-10-17T20:52:47.530Z,21.03
2022-10-17T21:02:48.940Z,20.96
2022-10-17T21:12:54.243Z,20.92
2022-10-17T21:22:57.204Z,20.87
2022-10-17T21:32:58.976Z,20.83
2022-10-17T21:43:00.494Z,20.75
2022-10-17T21:53:01.857Z,20.71
2022-10-17T22:03:04.109Z,20.68
2022-10-17T22:13:05.613Z,20.63
2022-10-17T22:23:07.094Z,20.59
2022-10-17T22:33:08.500Z,20.55
2022-10-17T22:43:10.009Z,20.55
2022-10-17T22:53:12.209Z,20.53
2022-10-17T23:03:13.731Z,20.50
2022-10-17T23:13:15.163Z,20.47
2022-10-17T23:23:16.613Z,20.46
2022-10-17T23:33:17.978Z,20.41
2022-10-17T23:43:19.460Z,20.40
2022-10-17T23:53:21.340Z,20.36
